• Join FlightAware (Why Join?)
  • Login
  • US Flag 
09:50PM EDT


 

Airport Tracker/Info


-or-


 

Live Flight TrackerFlight Track Log ✈ TAM3701 ✈ 17-Jun-2013 ✈ SBBR / BSB - SBSP / CGH

Flight Track Log - Related Links

Times and Time Zones

All times are in EDT time to prevent confusion due to time zone crossing. See the TAM3701 flight status page for this flight to view local times or setup timezone preferences in your user account.

Time Position Orientation Groundspeed Altitude Reporting Facility
EDT Latitude Longitude Course Direction KTS MPH feet Rate Location/Type
08:08AM -15.8690 -47.9190 317° Northwest 11 13  Level FlightAware
08:09AM -15.8680 -47.9190 360° North 28 32 660 Level FlightAware
08:10AM -15.8670 -47.9180 44° Northeast 18 21 900 Level FlightAware
08:10AM -15.8650 -47.9190 334° Northwest 28 32 960 Level FlightAware
08:10AM -15.8650 -47.9200 270° West 17 20 1,200 Level FlightAware
08:11AM -15.8650 -47.9230 270° West 21 24 1,260 Level FlightAware
08:12AM -15.8660 -47.9270 255° West 19 22 1,680 Level FlightAware
08:12AM -15.8640 -47.9260 26° Northeast 18 21 2,220 Level FlightAware
08:13AM -15.8630 -47.9240 63° Northeast 63 72 3,900 Level FlightAware
08:13AM -15.8610 -47.8930 86° East 168 193 3,800 3,840 Climbing FlightAware
08:14AM -15.8600 -47.8710 87° East 170 196 4,700 1,800 Climbing FlightAware
08:14AM -15.8590 -47.8480 87° East 177 204 5,500 1,560 Climbing FlightAware
08:15AM -15.8570 -47.8280 84° East 186 214 6,000 1,620 Climbing FlightAware
08:15AM -15.8560 -47.8060 87° East 187 215 6,800 1,500 Climbing FlightAware
08:16AM -15.8740 -47.7840 130° Southeast 197 227 7,500 960 Climbing FlightAware
08:16AM -15.9000 -47.7880 188° South 222 255 7,800 840 Climbing FlightAware
08:17AM -15.9320 -47.7930 189° South 265 305 8,300 1,440 Climbing FlightAware
08:17AM -15.9720 -47.7990 188° South 288 331 9,200 1,980 Climbing FlightAware
08:18AM -16.0220 -47.8070 189° South 304 350 10,600 1,680 Climbing FlightAware
08:18AM -16.0880 -47.8180 189° South 346 398 11,500 1,740 Climbing FlightAware
08:19AM -16.1560 -47.8290 189° South 355 409 13,100 2,040 Climbing FlightAware
08:20AM -16.2270 -47.8410 189° South 366 421 14,400 2,040 Climbing FlightAware
08:21AM -16.2940 -47.8520 189° South 369 425 16,000 2,040 Climbing FlightAware
08:21AM -16.3640 -47.8630 189° South 380 437 17,200 1,680 Climbing FlightAware
08:22AM -16.4340 -47.8750 189° South 392 451 18,300 1,740 Climbing FlightAware
08:23AM -16.5160 -47.8880 189° South 397 457 19,800 1,860 Climbing FlightAware
08:23AM -16.5450 -47.8930 189° South 389 448 20,500 1,020 Climbing FlightAware
08:24AM -16.6080 -47.9020 188° South 389 448 21,000 300 Climbing FlightAware
08:24AM -16.6640 -47.9100 188° South 389 448 21,000 1,620 Level FlightAware
08:25AM -16.8180 -47.9350 189° South 410 472 23,700 1,620 Climbing FlightAware
08:26AM -16.8760 -47.9420 187° South 410 472 23,700  Level FlightAware
08:27AM -16.9520 -47.9520 187° South 410 472 23,700  Level FlightAware
08:28AM -17.0120 -47.9600 187° South 410 472 23,700  Level FlightAware
08:28AM -17.0870 -47.9690 187° South 410 472 23,700 3,300 Level FlightAware
08:29AM -17.2160 -47.8700 144° Southeast 455 524 27,500 3,420 Climbing FlightAware
08:30AM -17.3480 -47.8520 173° South 462 532 28,500 720 Climbing FlightAware
08:31AM -17.4640 -47.8350 172° South 465 535 29,000 840 Climbing FlightAware
08:31AM -17.5570 -47.8220 172° South 473 544 29,900 960 Climbing FlightAware
08:32AM -17.6500 -47.8090 172° South 483 556 30,300 840 Climbing FlightAware
08:33AM -17.7470 -47.7950 172° South 480 552 31,200 1,020 Climbing FlightAware
08:33AM -17.8360 -47.7830 173° South 481 554 31,800 1,020 Climbing FlightAware
08:34AM -17.9280 -47.7690 172° South 479 551 32,600 1,080 Climbing FlightAware
08:35AM -18.0300 -47.7550 173° South 479 551 33,400 780 Climbing FlightAware
08:36AM -18.1170 -47.7420 172° South 482 555 33,800 840 Climbing FlightAware
08:36AM -18.2100 -47.7290 172° South 478 550 34,600 900 Climbing FlightAware
08:37AM -18.2990 -47.7160 172° South 479 551 35,100 600 Climbing FlightAware
08:38AM -18.3920 -47.7030 172° South 483 556 35,500 540 Climbing FlightAware
08:38AM -18.4890 -47.6900 173° South 487 560 35,900 360 Climbing FlightAware
08:39AM -18.5800 -47.6770 172° South 485 558 36,000 60 Climbing FlightAware
08:40AM -18.6760 -47.6630 172° South 482 555 36,000  Level FlightAware
08:40AM -18.7750 -47.6490 172° South 482 555 36,000  Level FlightAware
08:41AM -18.8630 -47.6360 172° South 484 557 36,000  Level FlightAware
08:42AM -18.9360 -47.6260 173° South 484 557 36,000  Level FlightAware
08:43AM -18.9840 -47.6210 174° South 478 550 36,000  Level FlightAware
08:43AM -19.1130 -47.6420 189° South 458 527 36,000  Level FlightAware
08:44AM -19.2830 -47.6730 190° South 461 531 36,000  Level FlightAware
08:45AM -19.3290 -47.6810 189° South 461 531 36,000 660 Level FlightAware
08:46AM -19.4590 -47.7050 190° South 450 518 37,000 960 Climbing FlightAware
08:47AM -19.5490 -47.7210 190° South 448 516 37,500 600 Climbing FlightAware
08:47AM -19.6300 -47.7360 190° South 446 513 37,900 300 Climbing FlightAware
08:48AM -19.7210 -47.7520 189° South 453 521 38,000 60 Climbing FlightAware
08:49AM -19.8050 -47.7680 190° South 459 528 38,000  Level FlightAware
08:49AM -19.8970 -47.7840 189° South 457 526 38,000  Level FlightAware
08:50AM -19.9880 -47.8010 190° South 458 527 38,000  Level FlightAware
08:51AM -20.0700 -47.8160 190° South 456 525 38,000  Level FlightAware
08:51AM -20.1510 -47.8310 190° South 458 527 38,000  Level FlightAware
08:52AM -20.2170 -47.8430 190° South 453 521 38,000  Level FlightAware
08:53AM -20.3090 -47.8600 190° South 451 519 38,000  Level FlightAware
08:53AM -20.3910 -47.8750 190° South 453 521 38,000  Level FlightAware
08:54AM -20.4780 -47.8910 190° South 454 522 38,000  Level FlightAware
08:55AM -20.5660 -47.9070 190° South 453 521 38,000  Level FlightAware
08:55AM -20.6520 -47.9230 190° South 452 520 38,000  Level FlightAware
08:56AM -20.7430 -47.9400 190° South 451 519 38,000  Level FlightAware
08:57AM -20.8250 -47.9550 190° South 454 522 38,000  Level FlightAware
08:57AM -20.9120 -47.9710 190° South 455 524 38,000  Level FlightAware
08:58AM -21.0040 -47.9880 190° South 450 518 38,000  Level FlightAware
08:59AM -21.0850 -48.0030 190° South 444 511 38,000  Level FlightAware
09:00AM -21.2050 -48.0020 180° South 468 539 38,000  Level FlightAware
09:01AM -21.2950 -47.9810 168° South 470 541 38,000  Level FlightAware
09:01AM -21.3820 -47.9620 169° South 469 540 38,000  Level FlightAware
09:02AM -21.4720 -47.9430 169° South 469 540 38,000  Level FlightAware
09:03AM -21.5670 -47.9220 168° South 469 540 38,000  Level FlightAware
09:03AM -21.6550 -47.9030 169° South 469 540 38,000  Level FlightAware
09:04AM -21.7460 -47.8830 168° South 469 540 38,000  Level FlightAware
09:05AM -21.8290 -47.8650 169° South 468 539 38,000 -1,020 Level FlightAware
09:05AM -21.9160 -47.8470 169° South 471 542 36,700 -2,220 Descending FlightAware
09:06AM -22.0130 -47.8250 168° South 473 544 34,900 -2,340 Descending FlightAware
09:07AM -22.1050 -47.8050 169° South 478 550 33,300 -2,400 Descending FlightAware
09:08AM -22.1960 -47.7850 168° South 478 550 31,600 -2,700 Descending FlightAware
09:08AM -22.2850 -47.7530 162° South 475 547 29,600 -2,520 Descending FlightAware
09:09AM -22.3710 -47.7210 161° South 459 528 28,100 -2,280 Descending FlightAware
09:10AM -22.4450 -47.6940 161° South 440 506 26,600 -2,280 Descending FlightAware
09:10AM -22.5270 -47.6640 161° South 425 489 25,100 -2,160 Descending FlightAware
09:11AM -22.6050 -47.6350 161° South 425 489 23,600 -3,180 Descending FlightAware
09:12AM -22.6820 -47.6070 161° South 436 502 20,800 -2,640 Descending FlightAware
09:12AM -22.7550 -47.5800 161° South 391 450 20,100 -660 Descending FlightAware
09:13AM -22.8250 -47.5410 153° Southeast 369 425 19,900 -1,380 Descending FlightAware
09:14AM -22.8850 -47.4860 140° Southeast 381 438 18,100 -2,220 Descending FlightAware
09:14AM -22.9370 -47.4370 139° Southeast 368 423 16,800 -1,860 Descending FlightAware
09:15AM -22.9900 -47.3880 140° Southeast 362 417 15,600 -1,860 Descending FlightAware
09:16AM -23.0480 -47.3340 139° Southeast 363 418 14,200 -1,620 Descending FlightAware
09:16AM -23.0900 -47.2950 139° Southeast 345 397 13,500 -1,080 Descending FlightAware
09:17AM -23.1440 -47.2440 139° Southeast 323 372 12,800 -1,320 Descending FlightAware
09:18AM -23.2010 -47.1910 139° Southeast 312 359 11,500 -1,200 Descending FlightAware
09:19AM -23.2450 -47.1510 140° Southeast 311 358 11,100 -660 Descending FlightAware
09:19AM -23.2920 -47.1070 139° Southeast 293 337 10,600 -900 Descending FlightAware
09:20AM -23.3260 -47.0740 138° Southeast 284 327 10,000 -840 Descending FlightAware
09:21AM -23.3560 -47.0460 139° Southeast 268 308 9,700 -600 Descending FlightAware
09:21AM -23.3860 -47.0180 139° Southeast 250 288 9,400 -540 Descending FlightAware
09:22AM -23.4100 -46.9960 140° Southeast 246 283 9,200 -480 Descending FlightAware
09:22AM -23.4210 -46.9860 140° Southeast 248 285 9,100 -300 Descending FlightAware
09:22AM -23.4450 -46.9630 139° Southeast 253 291 9,000 -180 Descending FlightAware
09:22AM -23.4560 -46.9530 140° Southeast 252 290 9,000  Level FlightAware
09:23AM -23.4810 -46.9300 140° Southeast 253 291 9,000  Level FlightAware
09:23AM -23.5060 -46.9060 139° Southeast 250 288 9,000  Level FlightAware
09:24AM -23.5290 -46.8830 137° Southeast 247 284 9,000  Level FlightAware
09:24AM -23.5560 -46.8580 140° Southeast 252 290 9,000  Level FlightAware
09:25AM -23.5750 -46.8390 137° Southeast 249 287 9,000  Level FlightAware
09:25AM -23.5860 -46.8280 137° Southeast 242 278 9,000  Level FlightAware
09:25AM -23.6120 -46.8030 139° Southeast 224 258 9,000  Level FlightAware
09:26AM -23.6350 -46.7800 138° Southeast 220 253 9,000  Level FlightAware
09:26AM -23.6560 -46.7590 138° Southeast 224 258 9,000  Level FlightAware
09:27AM -23.6780 -46.7370 138° Southeast 222 255 9,000 -360 Level FlightAware
09:27AM -23.7000 -46.7150 138° Southeast 219 252 8,700 -900 Descending FlightAware
09:28AM -23.7180 -46.6980 139° Southeast 220 253 8,200 -1,320 Descending FlightAware
09:28AM -23.7390 -46.6770 138° Southeast 222 255 7,600 -1,140 Descending FlightAware
09:29AM -23.7630 -46.6540 139° Southeast 222 255 7,100 -900 Descending FlightAware
09:29AM -23.7700 -46.6470 138° Southeast 220 253 7,000 -180 Descending FlightAware
09:29AM -23.7930 -46.6250 139° Southeast 222 255 7,000 -240 Level FlightAware
09:30AM -23.8170 -46.6020 139° Southeast 226 260 6,800 -660 Descending FlightAware
09:30AM -23.8390 -46.5830 142° Southeast 228 262 6,400 -780 Descending FlightAware
09:31AM -23.8540 -46.5690 140° Southeast 229 264 6,100 -960 Descending FlightAware
09:31AM -23.8720 -46.5500 136° Southeast 231 266 5,600 -900 Descending FlightAware
09:32AM -23.8600 -46.5140 70° East 203 234 5,300 -600 Descending FlightAware
09:32AM -23.8260 -46.5200 351° North 185 213 4,900 -360 Descending FlightAware
09:33AM -23.8060 -46.5330 329° Northwest 183 211 4,900  Level FlightAware
09:33AM -23.7860 -46.5470 327° Northwest 167 192 4,900  Level FlightAware
09:34AM -23.7700 -46.5570 330° Northwest 138 159 4,900  Level FlightAware
09:34AM -23.7560 -46.5670 327° Northwest 134 154 4,900  Level FlightAware
09:35AM -23.7410 -46.5780 326° Northwest 135 155 4,900 -180 Level FlightAware
09:35AM -23.7350 -46.5820 329° Northwest 135 155 4,800 -660 Descending FlightAware
09:35AM -23.7210 -46.5910 330° Northwest 135 155 4,500 -660 Descending FlightAware
09:36AM -23.7060 -46.6020 326° Northwest 133 153 4,200 -720 Descending FlightAware
09:36AM -23.6890 -46.6130 329° Northwest 135 155 3,800 -780 Descending FlightAware
09:37AM -23.6720 -46.6250 327° Northwest 130 150 3,400 -660 Descending FlightAware
09:37AM -23.6630 -46.6310 329° Northwest 131 151 3,200 -600 Descending FlightAware
09:38AM -23.6500 -46.6400 328° Northwest 129 148 2,900 -720 Descending FlightAware
09:38AM -23.6420 -46.6460 326° Northwest 132 152 2,700 -720 Descending FlightAware
09:39AM -23.6230 -46.6590 328° Northwest 130 150 -3,180 Descending FlightAware
09:39AM -23.6220 -46.6600 318° Northwest 130 150  Level FlightAware
09:40AM -23.6230 -46.6600 180° South 130 150  Level FlightAware
09:40AM -23.6240 -46.6600 180° South 130 150  Level FlightAware
09:42AM -23.6230 -46.6460 86° East 130 150  Level FlightAware
09:44AM -23.6240 -46.6600 266° West 130 150  Level FlightAware
09:45AM -23.6230 -46.6450 86° East 130 150  Level FlightAware
09:47AM -23.6267 -46.6554 249° West  Level Estimated